PAL454 RPMR-RPLL
Flight info
| Callsign | PAL454 |
|---|---|
| Flight time | N/A |
| Altitude | 34000 |
| Route | LATIA4R LATIA W6 LUMVI B473 LAIYA LAIYA3R |
| Aircraft | A320/M-SDE3FGHIRWY/LB1 |
Departure
| Time | 2026-04-18 06:58 |
|---|---|
| Airport | General Santos International Airport (RPMR) |
Arrival
| Time | N/A |
|---|---|
| Airport | Ninoy Aquino International Airport (RPLL) |
| Time | Latitude | Longitude | Altitude | Speed | Heading |
|---|---|---|---|---|---|
| 2026-04-18 06:30 | 6.05715 | 125.09956 | 514 ft | 0 kts | 82° |
| 2026-04-18 06:50 | 6.05712 | 125.09934 | 514 ft | 4 kts | 83° |
| 2026-04-18 06:50 | 6.05709 | 125.09908 | 514 ft | 4 kts | 76° |
| 2026-04-18 06:50 | 6.05697 | 125.09888 | 514 ft | 4 kts | 21° |
| 2026-04-18 06:50 | 6.05673 | 125.09885 | 514 ft | 2 kts | 353° |
| 2026-04-18 06:51 | 6.05666 | 125.09886 | 514 ft | 0 kts | 353° |
| 2026-04-18 06:53 | 6.05691 | 125.09883 | 514 ft | 5 kts | 353° |
| 2026-04-18 06:53 | 6.05727 | 125.09879 | 514 ft | 7 kts | 353° |
| 2026-04-18 06:54 | 6.05789 | 125.09872 | 514 ft | 9 kts | 354° |
| 2026-04-18 06:54 | 6.05833 | 125.09848 | 514 ft | 8 kts | 296° |
| 2026-04-18 06:54 | 6.05832 | 125.09784 | 514 ft | 11 kts | 264° |
| 2026-04-18 06:54 | 6.05822 | 125.09697 | 514 ft | 13 kts | 263° |
| 2026-04-18 06:55 | 6.05839 | 125.09624 | 514 ft | 10 kts | 316° |
| 2026-04-18 06:55 | 6.05901 | 125.09606 | 514 ft | 8 kts | 355° |
| 2026-04-18 06:55 | 6.05963 | 125.09600 | 514 ft | 9 kts | 353° |
| 2026-04-18 06:55 | 6.06031 | 125.09591 | 515 ft | 11 kts | 353° |
| 2026-04-18 06:56 | 6.06124 | 125.09580 | 516 ft | 13 kts | 353° |
| 2026-04-18 06:56 | 6.06209 | 125.09570 | 516 ft | 11 kts | 353° |
| 2026-04-18 06:56 | 6.06284 | 125.09560 | 516 ft | 10 kts | 353° |
| 2026-04-18 06:56 | 6.06381 | 125.09549 | 515 ft | 18 kts | 353° |
| 2026-04-18 06:57 | 6.06505 | 125.09536 | 515 ft | 9 kts | 4° |
| 2026-04-18 06:57 | 6.06502 | 125.09533 | 516 ft | 1 kts | 171° |
| 2026-04-18 06:57 | 6.06500 | 125.09533 | 516 ft | 4 kts | 171° |
| 2026-04-18 06:58 | 6.06249 | 125.09566 | 516 ft | 72 kts | 173° |
| 2026-04-18 06:58 | 6.05544 | 125.09653 | 513 ft | 130 kts | 173° |
| 2026-04-18 06:58 | 6.04493 | 125.09782 | 562 ft | 170 kts | 174° |
| 2026-04-18 06:58 | 6.03356 | 125.09919 | 1248 ft | 163 kts | 172° |
| 2026-04-18 06:59 | 6.02226 | 125.10058 | 1850 ft | 164 kts | 173° |
| 2026-04-18 06:59 | 6.01079 | 125.10198 | 2343 ft | 172 kts | 173° |
| 2026-04-18 06:59 | 5.99814 | 125.10352 | 2556 ft | 195 kts | 173° |
| 2026-04-18 06:59 | 5.98387 | 125.10526 | 2763 ft | 219 kts | 173° |
| 2026-04-18 07:00 | 5.96804 | 125.10803 | 3033 ft | 243 kts | 158° |
| 2026-04-18 07:00 | 5.95455 | 125.11896 | 3390 ft | 263 kts | 120° |
| 2026-04-18 07:00 | 5.95001 | 125.13675 | 4015 ft | 270 kts | 84° |
| 2026-04-18 07:00 | 5.95653 | 125.15430 | 4748 ft | 273 kts | 50° |
| 2026-04-18 07:01 | 5.97176 | 125.16518 | 5473 ft | 272 kts | 15° |
| 2026-04-18 07:01 | 5.99058 | 125.16736 | 6246 ft | 274 kts | 357° |
| 2026-04-18 07:01 | 6.00979 | 125.16679 | 6974 ft | 278 kts | 356° |
| 2026-04-18 07:01 | 6.02927 | 125.16617 | 7699 ft | 282 kts | 356° |
| 2026-04-18 07:02 | 6.04903 | 125.16552 | 8424 ft | 286 kts | 355° |
| 2026-04-18 07:02 | 6.06910 | 125.16513 | 9127 ft | 291 kts | 360° |
| 2026-04-18 07:02 | 6.08918 | 125.16698 | 9807 ft | 297 kts | 6° |
| 2026-04-18 07:02 | 6.10980 | 125.17040 | 10342 ft | 307 kts | 9° |
| 2026-04-18 07:03 | 6.13162 | 125.17458 | 10503 ft | 331 kts | 9° |
| 2026-04-18 07:03 | 6.15472 | 125.17924 | 10861 ft | 344 kts | 12° |
| 2026-04-18 07:03 | 6.17757 | 125.18724 | 11429 ft | 351 kts | 20° |
| 2026-04-18 07:03 | 6.20039 | 125.19637 | 12038 ft | 355 kts | 19° |
| 2026-04-18 07:04 | 6.22360 | 125.20528 | 12664 ft | 359 kts | 19° |
| 2026-04-18 07:04 | 6.24707 | 125.21411 | 13318 ft | 361 kts | 19° |